Latest Weather Observations for Proserpine

IDQ60801

Issued at 10:32 pm EST Monday 30 March 2015 (issued every 30 minutes, with the page automatically refreshed every 10 minutes)

About weather observations | Map of weather stations | Latest weather observations for QLD | Other Formats
Station Details ID: 033247 Name: PROSERPINE AIRPORT Lat: -20.49 Lon: 148.56 Height: 19.7 m
Data from the previous 72 hours. | See also: Recent months at Proserpine
Date/Time
EST
Temp
°C
App
Temp
°C
Dew
Point
Rel
Hum
%
Delta-T
°C
Wind Press
QNH
hPa
Press
MSL
hPa
Rain
since 9 am
mm
Dir
 
Spd
km/h
Gust
km/h
Spd
kts
Gust
kts
30/10:00pm 24.1 26.5 22.2 89 1.3 SSE 13 19 7 10 1018.5 1018.3 0.0
30/09:30pm 24.1 26.4 22.0 88 1.4 SSE 13 17 7 9 1018.6 1018.4 0.0
30/09:00pm 24.3 26.1 21.8 86 1.7 SSE 15 20 8 11 1018.7 1018.5 0.0
30/08:30pm 24.6 26.5 22.1 86 1.7 SSE 15 20 8 11 1018.6 1018.4 0.0
30/08:00pm 24.9 27.1 21.8 83 2.1 SSE 13 19 7 10 1018.4 1018.2 0.0
30/07:30pm 25.6 27.7 21.7 79 2.6 ESE 13 15 7 8 1017.9 1017.7 0.0
30/07:00pm 25.9 28.2 21.3 76 3.0 ESE 11 15 6 8 1017.5 1017.4 0.0
30/06:30pm 26.8 27.7 20.9 70 3.9 ESE 17 22 9 12 1017.4 1017.3 0.0
30/06:00pm 27.6 29.6 21.6 70 4.0 ESE 13 20 7 11 1017.0 1016.9 0.0
30/05:30pm 28.7 29.5 21.7 66 4.7 SE 20 24 11 13 1016.8 1016.7 0.0
30/05:00pm 29.2 29.7 21.2 62 5.3 ESE 20 28 11 15 1016.5 1016.4 0.0
30/04:30pm 29.7 30.0 20.8 58 5.9 ESE 20 30 11 16 1016.2 1016.1 0.0
30/04:00pm 30.1 29.3 20.1 55 6.6 ESE 24 33 13 18 1016.1 1016.0 0.0
30/03:30pm 30.0 29.8 20.5 56 6.3 SE 22 30 12 16 1015.9 1015.8 0.0
30/03:00pm 30.9 30.6 21.1 56 6.6 ESE 24 35 13 19 1015.7 1015.6 0.0
30/02:30pm 30.5 30.0 20.7 55 6.5 ESE 24 32 13 17 1015.7 1015.6 0.0
30/02:00pm 30.6 30.7 21.1 57 6.4 ESE 22 30 12 16 1015.9 1015.8 0.0
30/01:30pm 30.6 29.3 19.9 52 7.0 SE 26 37 14 20 1016.2 1016.1 0.0
30/01:00pm 31.4 31.2 21.3 55 6.8 ESE 24 33 13 18 1016.5 1016.4 0.0
30/12:30pm 32.3 31.7 21.2 52 7.5 SE 26 37 14 20 1017.1 1017.0 0.0
30/12:00pm 30.6 30.2 20.2 53 6.9 ESE 22 35 12 19 1017.6 1017.5 0.0
30/11:30am 31.2 30.8 21.7 57 6.4 SE 26 41 14 22 1018.1 1017.9 0.0
30/11:00am 30.4 30.5 21.2 58 6.2 SE 22 37 12 20 1018.4 1018.2 0.0
30/10:30am 30.5 30.6 21.8 59 5.9 SE 24 32 13 17 1018.9 1018.7 0.0
30/10:00am 29.4 29.2 22.1 65 4.9 ESE 26 37 14 20 1019.2 1019.0 0.0
30/09:30am 29.1 29.1 21.6 64 5.0 SE 24 33 13 18 1019.2 1019.0 0.0
30/09:00am 27.7 29.0 22.6 74 3.5 S 20 30 11 16 1019.0 1018.8 0.8
30/08:30am 26.5 28.4 22.1 77 3.0 SSE 15 22 8 12 1019.0 1018.8 0.8
30/08:00am 25.6 27.4 21.9 80 2.5 SSE 15 20 8 11 1018.7 1018.5 0.8
30/07:30am 24.3 26.1 21.2 83 2.0 SSE 13 17 7 9 1018.2 1018.0 0.8
30/07:00am 23.2 25.6 21.5 90 1.1 SSE 11 19 6 10 1018.0 1017.8 0.6
30/06:30am 22.6 24.4 21.1 91 1.0 S 13 17 7 9 1017.8 1017.6 0.6
30/06:00am 22.4 24.6 21.2 93 0.8 S 11 15 6 8 1017.5 1017.4 0.6
30/05:30am 22.4 25.4 21.2 93 0.8 S 7 9 4 5 1017.2 1017.1 0.4
30/05:00am 22.1 24.5 20.9 93 0.8 SSW 9 9 5 5 1017.0 1016.9 0.4
30/04:30am 22.3 24.5 21.1 93 0.8 S 11 15 6 8 1016.8 1016.7 0.4
30/04:00am 22.4 25.3 21.0 92 0.9 S 7 11 4 6 1016.5 1016.4 0.4
30/03:30am 22.7 25.3 21.2 91 1.0 S 9 13 5 7 1016.5 1016.4 0.4
30/03:00am 23.1 24.3 21.5 91 1.1 SSE 17 24 9 13 1016.5 1016.4 0.4
30/02:30am 23.0 25.0 21.6 92 0.9 SSE 13 19 7 10 1016.8 1016.7 0.4
30/02:00am 22.9 24.5 21.5 92 0.9 S 15 20 8 11 1017.1 1017.0 0.4
30/01:30am 22.8 24.8 21.6 93 0.8 S 13 19 7 10 1017.4 1017.3 0.4
30/01:00am 22.8 24.8 21.6 93 0.8 S 13 19 7 10 1017.6 1017.5 0.4
30/12:30am 23.1 25.3 21.9 93 0.8 S 13 20 7 11 1018.0 1017.8 0.4
30/12:00am 23.1 26.1 21.9 93 0.8 SSW 9 11 5 6 1018.4 1018.2 0.2
 
Date/Time
EST
Temp
°C
App
Temp
°C
Dew
Point
Rel
Hum
%
Delta-T
°C
Wind Press
QNH
hPa
Press
MSL
hPa
Rain
since 9 am
mm
Dir
 
Spd
km/h
Gust
km/h
Spd
kts
Gust
kts
29/11:30pm 23.1 26.1 21.9 93 0.8 SE 9 15 5 8 1018.7 1018.5 0.2
29/11:00pm 23.5 23.2 21.8 90 1.1 SE 26 41 14 22 1018.8 1018.6 0.2
29/10:52pm 24.0 24.7 21.5 86 1.7 SSE 20 41 11 22 1018.9 1018.7 0.0
29/10:30pm 24.2 26.6 21.5 85 1.8 S 11 15 6 8 1018.9 1018.7 0.0
29/10:00pm 24.1 26.4 21.4 85 1.8 SSE 11 17 6 9 1019.0 1018.8 0.0
29/09:30pm 24.8 26.5 21.7 83 2.1 S 15 20 8 11 1019.1 1018.9 0.0
29/09:00pm 25.2 26.5 20.9 77 2.8 SSE 15 22 8 12 1018.8 1018.6 0.0
29/08:30pm 26.2 27.0 20.7 71 3.6 SE 17 24 9 13 1018.6 1018.4 0.0
29/08:00pm 26.2 27.2 20.3 70 3.8 ESE 15 19 8 10 1018.4 1018.2 0.0
29/07:30pm 26.3 27.0 20.4 70 3.9 ESE 17 20 9 11 1018.1 1017.9 0.0
29/07:00pm 26.4 28.0 20.7 71 3.7 ESE 13 20 7 11 1017.9 1017.7 0.0
29/06:30pm 26.7 27.7 20.3 68 4.2 ESE 15 20 8 11 1017.5 1017.4 0.0
29/06:00pm 27.3 27.5 20.1 64 4.7 ESE 19 26 10 14 1017.3 1017.2 0.0
29/05:30pm 28.0 27.5 20.0 61 5.2 ESE 22 30 12 16 1016.9 1016.8 0.0
29/05:00pm 28.8 28.3 20.8 62 5.3 ESE 24 33 13 18 1016.6 1016.5 0.0
29/04:30pm 28.4 29.6 21.4 66 4.7 ESE 17 22 9 12 1016.6 1016.5 0.0
29/04:00pm 28.5 27.8 20.2 60 5.4 ESE 24 35 13 19 1016.3 1016.2 0.0
29/03:30pm 29.7 28.7 20.5 57 6.1 ESE 26 33 14 18 1016.2 1016.1 0.0
29/03:00pm 29.9 29.8 20.7 57 6.1 ESE 22 32 12 17 1016.0 1015.9 0.0
29/02:30pm 29.7 29.4 21.1 60 5.7 ESE 24 33 13 18 1016.1 1016.0 0.0
29/02:00pm 30.9 30.4 20.8 55 6.7 ESE 24 35 13 19 1016.3 1016.2 0.0
29/01:30pm 30.9 30.2 21.1 56 6.6 ESE 26 35 14 19 1016.6 1016.5 0.0
29/01:00pm 31.8 30.8 20.4 51 7.6 E 26 35 14 19 1017.1 1017.0 0.0
29/12:30pm 31.6 29.9 19.9 50 7.7 E 28 41 15 22 1017.3 1017.2 0.0
29/12:00pm 29.6 29.6 21.0 60 5.7 ESE 22 33 12 18 1017.8 1017.6 0.0
29/11:30am 31.2 31.0 20.5 53 7.1 E 22 33 12 18 1018.1 1017.9 0.0
29/11:00am 30.9 30.2 21.1 56 6.6 E 26 35 14 19 1018.5 1018.3 0.0
29/10:30am 31.3 31.3 20.9 54 7.0 ESE 22 32 12 17 1018.6 1018.4 0.0
29/10:00am 30.4 30.1 20.3 54 6.7 ESE 22 32 12 17 1018.7 1018.5 0.0
29/09:30am 29.8 29.2 19.8 55 6.6 E 22 32 12 17 1018.7 1018.5 0.0
29/09:00am 29.9 29.9 21.0 59 5.9 ESE 22 32 12 17 1018.7 1018.5 0.0
29/08:30am 29.0 28.7 20.4 59 5.7 ESE 22 35 12 19 1018.6 1018.4 0.0
29/08:00am 25.9 28.3 22.2 80 2.5 SSW 13 17 7 9 1018.2 1018.0 0.0
29/07:30am 25.4 28.4 21.9 81 2.3 SSW 9 15 5 8 1017.6 1017.5 0.0
29/07:00am 24.8 27.5 22.1 85 1.8 ESE 11 17 6 9 1017.2 1017.1 0.0
29/06:30am 23.6 26.8 21.7 89 1.3 SSE 7 13 4 7 1016.8 1016.7 0.0
29/06:00am 23.4 26.7 21.5 89 1.3 S 6 9 3 5 1016.5 1016.4 0.0
29/05:30am 22.6 25.1 21.1 91 1.0 SSW 9 11 5 6 1016.0 1015.9 0.0
29/05:00am 22.2 24.5 20.7 91 1.0 SSW 9 11 5 6 1015.8 1015.7 0.0
29/04:30am 22.4 25.2 20.9 91 1.0 SSW 7 9 4 5 1015.7 1015.6 0.0
29/04:00am 22.5 24.9 20.8 90 1.1 SSW 9 13 5 7 1015.6 1015.5 0.0
29/03:30am 22.7 25.7 20.8 89 1.2 S 6 7 3 4 1015.5 1015.4 0.0
29/03:00am 22.8 25.7 21.1 90 1.1 SSW 7 9 4 5 1015.6 1015.5 0.0
29/02:30am 22.4 24.5 20.9 91 1.0 SSW 11 13 6 7 1015.6 1015.5 0.0
29/02:00am 22.4 24.5 20.9 91 1.0 SSW 11 13 6 7 1015.8 1015.7 0.0
29/01:30am 22.8 26.8 20.5 87 1.5 CALM 0 0 0 0 1016.1 1016.0 0.0
29/01:00am 23.3 26.7 21.0 87 1.5 S 4 9 2 5 1016.3 1016.2 0.0
29/12:30am 23.3 25.5 21.2 88 1.4 SSW 11 13 6 7 1016.4 1016.3 0.0
29/12:00am 22.9 26.1 20.4 86 1.6 SSW 4 11 2 6 1016.8 1016.7 0.0
 
Date/Time
EST
Temp
°C
App
Temp
°C
Dew
Point
Rel
Hum
%
Delta-T
°C
Wind Press
QNH
hPa
Press
MSL
hPa
Rain
since 9 am
mm
Dir
 
Spd
km/h
Gust
km/h
Spd
kts
Gust
kts
28/11:30pm 23.8 26.1 20.7 83 2.0 S 9 11 5 6 1017.0 1016.9 0.0
28/11:00pm 24.3 26.4 21.0 82 2.2 S 11 15 6 8 1017.2 1017.1 0.0
28/10:30pm 24.1 27.1 21.2 84 1.9 SSW 7 11 4 6 1017.3 1017.2 0.0
28/10:00pm 23.7 26.4 20.6 83 2.0 SSW 7 9 4 5 1017.3 1017.2 0.0
28/09:30pm 24.9 27.2 20.6 77 2.8 S 9 13 5 7 1017.3 1017.2 0.0
28/09:00pm 25.6 27.8 21.1 76 3.0 SE 11 17 6 9 1017.2 1017.1 0.0
28/08:30pm 25.8 27.4 20.8 74 3.3 ESE 13 17 7 9 1016.9 1016.8 0.0
28/08:00pm 26.1 27.3 20.7 72 3.5 ESE 15 19 8 10 1016.8 1016.7 0.0
28/07:30pm 26.1 27.4 20.9 73 3.4 ESE 15 19 8 10 1016.5 1016.4 0.0
28/07:00pm 26.3 27.2 20.8 71 3.6 SE 17 20 9 11 1016.0 1015.9 0.0
28/06:30pm 26.7 27.3 21.0 71 3.8 ESE 19 24 10 13 1015.5 1015.4 0.0
28/06:00pm 27.3 27.0 20.4 66 4.5 ESE 22 35 12 19 1015.3 1015.2 0.0
28/05:30pm 28.1 27.7 20.1 62 5.2 ESE 22 33 12 18 1015.2 1015.1 0.0
28/05:00pm 28.9 27.8 19.5 57 6.1 E 24 39 13 21 1014.9 1014.8 0.0
28/04:30pm 29.8 28.6 20.1 56 6.4 E 26 37 14 20 1014.7 1014.6 0.0
28/04:00pm 29.8 26.4 17.6 48 7.8 E 32 46 17 25 1014.5 1014.4 0.0
28/03:53pm 30.4 27.7 17.5 46 8.2 ESE 28 46 15 25 1014.5 1014.4 0.0
28/03:30pm 30.6 28.5 19.0 50 7.5 ESE 28 35 15 19 1014.7 1014.6 0.0
28/03:00pm 31.3 29.6 20.6 53 7.1 ESE 30 43 16 23 1014.8 1014.7 0.0
28/02:30pm 31.5 30.3 20.8 53 7.1 ESE 28 41 15 22 1014.9 1014.8 0.0
28/02:00pm 31.7 30.7 21.2 53 7.1 ESE 28 41 15 22 1015.1 1015.0 0.0
28/01:30pm 30.9 29.3 19.3 50 7.6 E 26 39 14 21 1015.3 1015.2 0.0
28/01:00pm 31.3 29.2 19.0 48 8.0 ESE 28 39 15 21 1015.6 1015.5 0.0
28/12:30pm 30.3 29.7 20.5 55 6.5 ESE 24 35 13 19 1016.0 1015.9 0.0
28/12:00pm 31.0 30.2 20.0 52 7.3 ESE 24 35 13 19 1016.5 1016.4 0.0
28/11:30am 31.3 30.7 20.6 53 7.1 ESE 24 33 13 18 1017.1 1017.0 0.0
28/11:00am 30.8 29.7 19.5 51 7.4 ESE 24 32 13 17 1017.5 1017.4 0.0
28/10:30am 30.2 30.3 20.4 55 6.5 ESE 20 30 11 16 1017.8 1017.6 0.0
28/10:00am 30.5 30.1 20.1 53 6.9 SE 22 37 12 20 1017.9 1017.7 0.0
28/09:30am 30.1 29.5 20.4 56 6.4 SE 24 30 13 16 1017.9 1017.7 0.0
28/09:00am 29.6 30.2 21.0 60 5.7 SE 19 30 10 16 1017.9 1017.7 0.2
28/08:30am 28.0 28.2 20.6 64 4.9 SE 20 30 11 16 1017.6 1017.5 0.2
28/08:00am 26.9 28.5 21.4 72 3.7 SSE 15 19 8 10 1017.3 1017.2 0.2
28/07:30am 23.8 26.9 21.5 87 1.5 SSW 7 9 4 5 1017.0 1016.9 0.2
28/07:00am 22.0 24.6 21.2 95 0.5 SW 9 11 5 6 1016.8 1016.7 0.2
28/06:30am 21.0 24.7 20.0 94 0.6 CALM 0 6 0 3 1016.5 1016.4 0.2
28/06:00am 21.5 24.7 20.5 94 0.6 SW 4 7 2 4 1016.0 1015.9 0.2
28/05:30am 21.6 25.6 20.6 94 0.6 CALM 0 0 0 0 1015.9 1015.8 0.2
28/05:00am 21.7 24.4 20.7 94 0.6 SSW 7 9 4 5 1015.7 1015.6 0.2
28/04:30am 21.6 25.1 20.4 93 0.8 SSW 2 7 1 4 1015.7 1015.6 0.2
28/04:00am 22.0 24.5 21.0 94 0.7 SSW 9 11 5 6 1015.4 1015.3 0.2
28/03:30am 21.8 24.3 20.3 91 1.0 SSW 7 9 4 5 1015.2 1015.1 0.2
28/03:00am 22.4 25.5 21.0 92 0.9 SSW 6 7 3 4 1015.3 1015.2 0.2
28/02:30am 22.3 25.7 20.9 92 0.9 SSW 4 7 2 4 1015.3 1015.2 0.2
28/02:00am 22.1 24.8 20.6 91 1.0 SW 7 9 4 5 1015.3 1015.2 0.2
28/01:30am 22.7 27.0 21.2 91 1.0 CALM 0 0 0 0 1015.6 1015.5 0.2
28/01:00am 22.6 25.8 21.2 92 0.9 SSW 6 7 3 4 1016.0 1015.9 0.2
28/12:30am 22.3 25.8 21.1 93 0.8 SSW 4 7 2 4 1016.2 1016.1 0.2
28/12:00am 21.6 24.0 20.1 91 1.0 SSW 7 9 4 5 1016.3 1016.2 0.2
 
Date/Time
EST
Temp
°C
App
Temp
°C
Dew
Point
Rel
Hum
%
Delta-T
°C
Wind Press
QNH
hPa
Press
MSL
hPa
Rain
since 9 am
mm
Dir
 
Spd
km/h
Gust
km/h
Spd
kts
Gust
kts
27/11:30pm 22.3 26.4 20.8 91 1.0 CALM 0 0 0 0 1016.5 1016.4 0.2
27/11:00pm 22.2 25.7 20.3 89 1.2 SSW 2 6 1 3 1016.6 1016.5 0.2

Other Formats:

Comma delimited format used in spreadsheet applications
http://www.bom.gov.au/fwo/IDQ60801/IDQ60801.94365.axf

JavaScript Object Notation format (JSON) in row-major order
http://www.bom.gov.au/fwo/IDQ60801/IDQ60801.94365.json